sensor_id;sensor_type;location;lat;lon;timestamp;pressure;altitude;pressure_sealevel;temperature
28803;BMP280;15949;55.656;37.422;2022-10-17T00:02:57;100612.91;;;4.71
28803;BMP280;15949;55.656;37.422;2022-10-17T00:08:02;100609.09;;;4.68
28803;BMP280;15949;55.656;37.422;2022-10-17T00:13:09;100609.19;;;4.72
28803;BMP280;15949;55.656;37.422;2022-10-17T00:18:14;100612.25;;;4.74
28803;BMP280;15949;55.656;37.422;2022-10-17T00:23:20;100606.81;;;4.66
28803;BMP280;15949;55.656;37.422;2022-10-17T00:28:26;100593.94;;;4.61
28803;BMP280;15949;55.656;37.422;2022-10-17T00:33:33;100581.19;;;4.67
28803;BMP280;15949;55.656;37.422;2022-10-17T00:38:41;100577.97;;;4.54
28803;BMP280;15949;55.656;37.422;2022-10-17T00:49:16;100572.41;;;4.59
28803;BMP280;15949;55.656;37.422;2022-10-17T00:54:26;100563.31;;;4.57
28803;BMP280;15949;55.656;37.422;2022-10-17T00:59:35;100550.78;;;4.50
28803;BMP280;15949;55.656;37.422;2022-10-17T01:04:45;100541.53;;;4.40
28803;BMP280;15949;55.656;37.422;2022-10-17T01:09:51;100539.97;;;4.36
28803;BMP280;15949;55.656;37.422;2022-10-17T01:26:08;100507.28;;;4.17
28803;BMP280;15949;55.656;37.422;2022-10-17T01:31:21;100504.25;;;4.19
28803;BMP280;15949;55.656;37.422;2022-10-17T01:41:55;100504.22;;;4.15
28803;BMP280;15949;55.656;37.422;2022-10-17T01:47:09;100493.63;;;4.12
28803;BMP280;15949;55.656;37.422;2022-10-17T01:52:27;100475.09;;;4.08
28803;BMP280;15949;55.656;37.422;2022-10-17T01:57:41;100468.72;;;4.09
28803;BMP280;15949;55.656;37.422;2022-10-17T02:02:51;100463.34;;;4.02
28803;BMP280;15949;55.656;37.422;2022-10-17T02:07:58;100464.84;;;4.03
28803;BMP280;15949;55.656;37.422;2022-10-17T02:18:52;100467.88;;;4.05
28803;BMP280;15949;55.656;37.422;2022-10-17T02:24:14;100471.00;;;4.11
28803;BMP280;15949;55.656;37.422;2022-10-17T02:29:28;100475.38;;;4.03
28803;BMP280;15949;55.656;37.422;2022-10-17T02:34:39;100467.97;;;4.09
28803;BMP280;15949;55.656;37.422;2022-10-17T02:39:47;100463.53;;;4.16
28803;BMP280;15949;55.656;37.422;2022-10-17T02:44:58;100463.53;;;4.16
28803;BMP280;15949;55.656;37.422;2022-10-17T02:50:05;100453.00;;;4.16
28803;BMP280;15949;55.656;37.422;2022-10-17T02:55:19;100445.50;;;4.18
28803;BMP280;15949;55.656;37.422;2022-10-17T03:00:27;100436.47;;;4.19
28803;BMP280;15949;55.656;37.422;2022-10-17T03:05:34;100446.63;;;4.17
28803;BMP280;15949;55.656;37.422;2022-10-17T03:10:39;100432.63;;;4.13
28803;BMP280;15949;55.656;37.422;2022-10-17T03:15:45;100431.09;;;4.12
28803;BMP280;15949;55.656;37.422;2022-10-17T03:20:50;100417.91;;;4.12
28803;BMP280;15949;55.656;37.422;2022-10-17T03:25:56;100400.44;;;4.04
28803;BMP280;15949;55.656;37.422;2022-10-17T03:31:09;100396.28;;;4.03
28803;BMP280;15949;55.656;37.422;2022-10-17T03:36:16;100381.06;;;3.93
28803;BMP280;15949;55.656;37.422;2022-10-17T03:41:22;100379.53;;;3.92
28803;BMP280;15949;55.656;37.422;2022-10-17T03:46:28;100377.25;;;3.90
28803;BMP280;15949;55.656;37.422;2022-10-17T03:51:33;100374.44;;;3.79
28803;BMP280;15949;55.656;37.422;2022-10-17T03:56:39;100368.06;;;3.80
28803;BMP280;15949;55.656;37.422;2022-10-17T04:01:45;100357.53;;;3.80
28803;BMP280;15949;55.656;37.422;2022-10-17T04:06:51;100350.84;;;3.87
28803;BMP280;15949;55.656;37.422;2022-10-17T04:11:56;100342.53;;;3.85
28803;BMP280;15949;55.656;37.422;2022-10-17T04:17:02;100354.00;;;3.96
28803;BMP280;15949;55.656;37.422;2022-10-17T04:22:08;100359.38;;;4.03
28803;BMP280;15949;55.656;37.422;2022-10-17T04:27:14;100347.34;;;4.02
28803;BMP280;15949;55.656;37.422;2022-10-17T04:32:19;100337.56;;;4.06
28803;BMP280;15949;55.656;37.422;2022-10-17T04:37:25;100326.34;;;4.09
28803;BMP280;15949;55.656;37.422;2022-10-17T04:42:33;100322.66;;;4.17
28803;BMP280;15949;55.656;37.422;2022-10-17T04:47:38;100307.63;;;4.21
28803;BMP280;15949;55.656;37.422;2022-10-17T04:52:44;100312.28;;;4.32
28803;BMP280;15949;55.656;37.422;2022-10-17T04:57:50;100321.50;;;4.45
28803;BMP280;15949;55.656;37.422;2022-10-17T05:02:55;100318.59;;;4.54
28803;BMP280;15949;55.656;37.422;2022-10-17T05:08:01;100309.91;;;4.53
28803;BMP280;15949;55.656;37.422;2022-10-17T05:13:07;100308.91;;;4.61
28803;BMP280;15949;55.656;37.422;2022-10-17T05:18:13;100313.19;;;4.73
28803;BMP280;15949;55.656;37.422;2022-10-17T05:23:18;100294.69;;;4.73
28803;BMP280;15949;55.656;37.422;2022-10-17T05:28:24;100287.22;;;4.79
28803;BMP280;15949;55.656;37.422;2022-10-17T05:33:30;100290.72;;;4.90
28803;BMP280;15949;55.656;37.422;2022-10-17T05:38:36;100278.75;;;5.00
28803;BMP280;15949;55.656;37.422;2022-10-17T05:43:42;100267.16;;;5.11
28803;BMP280;15949;55.656;37.422;2022-10-17T05:48:47;100260.47;;;5.25
28803;BMP280;15949;55.656;37.422;2022-10-17T05:53:53;100250.75;;;5.40
28803;BMP280;15949;55.656;37.422;2022-10-17T05:58:59;100259.84;;;5.42
28803;BMP280;15949;55.656;37.422;2022-10-17T06:04:05;100259.16;;;5.52
28803;BMP280;15949;55.656;37.422;2022-10-17T06:09:10;100259.91;;;5.53
28803;BMP280;15949;55.656;37.422;2022-10-17T06:14:16;100254.63;;;5.49
28803;BMP280;15949;55.656;37.422;2022-10-17T06:19:22;100243.34;;;5.56
28803;BMP280;15949;55.656;37.422;2022-10-17T06:24:27;100238.06;;;5.60
28803;BMP280;15949;55.656;37.422;2022-10-17T06:29:33;100254.38;;;5.69
28803;BMP280;15949;55.656;37.422;2022-10-17T06:34:39;100260.84;;;5.78
28803;BMP280;15949;55.656;37.422;2022-10-17T06:39:44;100251.78;;;5.83
28803;BMP280;15949;55.656;37.422;2022-10-17T06:44:50;100225.44;;;5.97
28803;BMP280;15949;55.656;37.422;2022-10-17T06:49:56;100221.72;;;6.23
28803;BMP280;15949;55.656;37.422;2022-10-17T06:55:01;100222.53;;;6.38
28803;BMP280;15949;55.656;37.422;2022-10-17T07:00:08;100218.78;;;6.54
28803;BMP280;15949;55.656;37.422;2022-10-17T07:05:14;100213.47;;;6.68
28803;BMP280;15949;55.656;37.422;2022-10-17T07:10:20;100205.53;;;6.54
28803;BMP280;15949;55.656;37.422;2022-10-17T07:15:25;100209.69;;;6.47
28803;BMP280;15949;55.656;37.422;2022-10-17T07:20:32;100210.44;;;6.52
28803;BMP280;15949;55.656;37.422;2022-10-17T07:25:38;100202.50;;;6.52
28803;BMP280;15949;55.656;37.422;2022-10-17T07:30:44;100202.88;;;6.46
28803;BMP280;15949;55.656;37.422;2022-10-17T07:35:50;100187.75;;;6.51
28803;BMP280;15949;55.656;37.422;2022-10-17T07:40:59;100194.56;;;6.52
28803;BMP280;15949;55.656;37.422;2022-10-17T07:46:05;100214.97;;;6.44
28803;BMP280;15949;55.656;37.422;2022-10-17T07:51:10;100208.16;;;6.43
28803;BMP280;15949;55.656;37.422;2022-10-17T07:56:16;100205.50;;;6.32
28803;BMP280;15949;55.656;37.422;2022-10-17T08:01:22;100205.94;;;6.63
28803;BMP280;15949;55.656;37.422;2022-10-17T08:06:30;100191.91;;;6.55
28803;BMP280;15949;55.656;37.422;2022-10-17T08:11:35;100163.16;;;6.39
28803;BMP280;15949;55.656;37.422;2022-10-17T08:16:41;100163.88;;;6.29
28803;BMP280;15949;55.656;37.422;2022-10-17T08:21:47;100173.78;;;6.36
28803;BMP280;15949;55.656;37.422;2022-10-17T08:26:54;100152.97;;;6.34
28803;BMP280;15949;55.656;37.422;2022-10-17T08:32:02;100172.25;;;6.38
28803;BMP280;15949;55.656;37.422;2022-10-17T08:37:07;100183.97;;;6.37
28803;BMP280;15949;55.656;37.422;2022-10-17T08:48:01;100173.38;;;6.41
28803;BMP280;15949;55.656;37.422;2022-10-17T08:59:12;100201.75;;;6.40
28803;BMP280;15949;55.656;37.422;2022-10-17T09:04:37;100194.53;;;6.27
28803;BMP280;15949;55.656;37.422;2022-10-17T09:26:29;100183.72;;;5.59
28803;BMP280;15949;55.656;37.422;2022-10-17T09:31:41;100193.09;;;5.52
28803;BMP280;15949;55.656;37.422;2022-10-17T09:36:48;100183.66;;;5.55
28803;BMP280;15949;55.656;37.422;2022-10-17T09:41:56;100162.16;;;5.56
28803;BMP280;15949;55.656;37.422;2022-10-17T09:52:35;100135.38;;;5.58
28803;BMP280;15949;55.656;37.422;2022-10-17T09:57:57;100144.47;;;5.68
28803;BMP280;15949;55.656;37.422;2022-10-17T10:08:22;100110.50;;;5.70
28803;BMP280;15949;55.656;37.422;2022-10-17T10:13:32;100117.31;;;5.78
28803;BMP280;15949;55.656;37.422;2022-10-17T10:18:38;100118.44;;;5.80
28803;BMP280;15949;55.656;37.422;2022-10-17T10:29:26;100093.91;;;5.80
28803;BMP280;15949;55.656;37.422;2022-10-17T10:34:41;100098.81;;;5.92
28803;BMP280;15949;55.656;37.422;2022-10-17T10:39:50;100101.13;;;5.97
28803;BMP280;15949;55.656;37.422;2022-10-17T10:45:00;100098.50;;;5.97
28803;BMP280;15949;55.656;37.422;2022-10-17T10:50:30;100110.16;;;5.86
28803;BMP280;15949;55.656;37.422;2022-10-17T10:55:41;100097.34;;;5.98
28803;BMP280;15949;55.656;37.422;2022-10-17T11:00:48;100061.84;;;5.99
28803;BMP280;15949;55.656;37.422;2022-10-17T11:06:03;100061.50;;;6.08
28803;BMP280;15949;55.656;37.422;2022-10-17T11:16:34;100070.94;;;6.06
28803;BMP280;15949;55.656;37.422;2022-10-17T11:27:08;100069.03;;;6.17
28803;BMP280;15949;55.656;37.422;2022-10-17T11:32:19;100048.25;;;6.15
28803;BMP280;15949;55.656;37.422;2022-10-17T11:37:34;100056.94;;;6.05
28803;BMP280;15949;55.656;37.422;2022-10-17T11:42:51;100054.66;;;6.07
28803;BMP280;15949;55.656;37.422;2022-10-17T11:48:01;100045.63;;;6.08
28803;BMP280;15949;55.656;37.422;2022-10-17T11:53:18;100033.50;;;6.07
28803;BMP280;15949;55.656;37.422;2022-10-17T11:58:55;100031.97;;;6.02
28803;BMP280;15949;55.656;37.422;2022-10-17T12:04:51;100016.88;;;6.07
28803;BMP280;15949;55.656;37.422;2022-10-17T12:15:28;100005.19;;;6.15
28803;BMP280;15949;55.656;37.422;2022-10-17T12:20:35;99995.72;;;6.21
28803;BMP280;15949;55.656;37.422;2022-10-17T12:26:00;99993.44;;;6.16
28803;BMP280;15949;55.656;37.422;2022-10-17T12:31:09;99990.44;;;6.28
28803;BMP280;15949;55.656;37.422;2022-10-17T12:52:15;100015.38;;;6.38
28803;BMP280;15949;55.656;37.422;2022-10-17T13:02:52;100036.94;;;6.36
28803;BMP280;15949;55.656;37.422;2022-10-17T13:08:01;100033.88;;;6.38
28803;BMP280;15949;55.656;37.422;2022-10-17T13:13:44;100062.97;;;6.41
28803;BMP280;15949;55.656;37.422;2022-10-17T13:18:52;100087.94;;;6.44
28803;BMP280;15949;55.656;37.422;2022-10-17T13:23:58;100088.69;;;6.52
28803;BMP280;15949;55.656;37.422;2022-10-17T13:29:08;100100.78;;;6.49
28803;BMP280;15949;55.656;37.422;2022-10-17T13:34:21;100104.19;;;6.46
28803;BMP280;15949;55.656;37.422;2022-10-17T13:39:29;100092.47;;;6.43
28803;BMP280;15949;55.656;37.422;2022-10-17T13:44:37;100093.63;;;6.46
28803;BMP280;15949;55.656;37.422;2022-10-17T13:49:43;100091.72;;;6.61
28803;BMP280;15949;55.656;37.422;2022-10-17T13:54:50;100075.84;;;6.54
28803;BMP280;15949;55.656;37.422;2022-10-17T14:00:02;100061.06;;;6.67
28803;BMP280;15949;55.656;37.422;2022-10-17T14:05:12;100055.03;;;6.63
28803;BMP280;15949;55.656;37.422;2022-10-17T14:10:20;100040.28;;;6.69
28803;BMP280;15949;55.656;37.422;2022-10-17T14:15:29;100037.25;;;6.74
28803;BMP280;15949;55.656;37.422;2022-10-17T14:20:36;100043.31;;;6.71
28803;BMP280;15949;55.656;37.422;2022-10-17T14:25:41;100030.44;;;6.69
28803;BMP280;15949;55.656;37.422;2022-10-17T14:30:48;100035.72;;;6.66
28803;BMP280;15949;55.656;37.422;2022-10-17T14:35:59;100031.97;;;6.60
28803;BMP280;15949;55.656;37.422;2022-10-17T14:41:13;100041.41;;;6.61
28803;BMP280;15949;55.656;37.422;2022-10-17T14:46:19;100056.16;;;6.69
28803;BMP280;15949;55.656;37.422;2022-10-17T14:51:25;100051.25;;;6.71
28803;BMP280;15949;55.656;37.422;2022-10-17T14:56:38;100058.41;;;6.78
28803;BMP280;15949;55.656;37.422;2022-10-17T15:01:44;100054.25;;;6.80
28803;BMP280;15949;55.656;37.422;2022-10-17T15:06:53;100042.53;;;6.81
28803;BMP280;15949;55.656;37.422;2022-10-17T15:12:00;100054.59;;;6.86
28803;BMP280;15949;55.656;37.422;2022-10-17T15:17:16;100081.06;;;6.89
28803;BMP280;15949;55.656;37.422;2022-10-17T15:22:22;100065.97;;;6.90
28803;BMP280;15949;55.656;37.422;2022-10-17T15:27:28;100064.44;;;6.93
28803;BMP280;15949;55.656;37.422;2022-10-17T15:32:35;100077.31;;;6.90
28803;BMP280;15949;55.656;37.422;2022-10-17T15:37:41;100075.75;;;7.00
28803;BMP280;15949;55.656;37.422;2022-10-17T15:42:47;100078.03;;;7.05
28803;BMP280;15949;55.656;37.422;2022-10-17T15:47:58;100075.75;;;7.04
28803;BMP280;15949;55.656;37.422;2022-10-17T15:53:04;100081.78;;;7.04
28803;BMP280;15949;55.656;37.422;2022-10-17T15:58:14;100071.94;;;7.05
28803;BMP280;15949;55.656;37.422;2022-10-17T16:03:20;100060.56;;;7.11
28803;BMP280;15949;55.656;37.422;2022-10-17T16:08:26;100055.28;;;7.19
28803;BMP280;15949;55.656;37.422;2022-10-17T16:13:32;100060.91;;;7.24
28803;BMP280;15949;55.656;37.422;2022-10-17T16:18:38;100070.75;;;7.24
28803;BMP280;15949;55.656;37.422;2022-10-17T16:23:43;100077.91;;;7.34
28803;BMP280;15949;55.656;37.422;2022-10-17T16:28:49;100082.09;;;7.28
28803;BMP280;15949;55.656;37.422;2022-10-17T16:33:57;100073.38;;;7.34
28803;BMP280;15949;55.656;37.422;2022-10-17T16:39:03;100071.81;;;7.37
28803;BMP280;15949;55.656;37.422;2022-10-17T16:44:11;100089.66;;;7.33
28803;BMP280;15949;55.656;37.422;2022-10-17T16:49:18;100098.34;;;7.41
28803;BMP280;15949;55.656;37.422;2022-10-17T16:54:24;100088.44;;;7.52
28803;BMP280;15949;55.656;37.422;2022-10-17T16:59:30;100092.97;;;7.48
28803;BMP280;15949;55.656;37.422;2022-10-17T17:04:35;100098.63;;;7.53
28803;BMP280;15949;55.656;37.422;2022-10-17T17:09:41;100092.16;;;7.62
28803;BMP280;15949;55.656;37.422;2022-10-17T17:14:46;100100.47;;;7.67
28803;BMP280;15949;55.656;37.422;2022-10-17T17:19:52;100098.16;;;7.69
28803;BMP280;15949;55.656;37.422;2022-10-17T17:24:58;100083.44;;;7.61
28803;BMP280;15949;55.656;37.422;2022-10-17T17:30:04;100086.84;;;7.65
28803;BMP280;15949;55.656;37.422;2022-10-17T17:35:10;100081.50;;;7.72
28803;BMP280;15949;55.656;37.422;2022-10-17T17:40:16;100091.38;;;7.61
28803;BMP280;15949;55.656;37.422;2022-10-17T17:45:21;100098.59;;;7.64
28803;BMP280;15949;55.656;37.422;2022-10-17T17:50:27;100096.75;;;7.54
28803;BMP280;15949;55.656;37.422;2022-10-17T17:55:33;100110.31;;;7.63
28803;BMP280;15949;55.656;37.422;2022-10-17T18:00:39;100083.81;;;7.63
28803;BMP280;15949;55.656;37.422;2022-10-17T18:05:45;100097.50;;;7.58
28803;BMP280;15949;55.656;37.422;2022-10-17T18:10:50;100103.53;;;7.62
28803;BMP280;15949;55.656;37.422;2022-10-17T18:16:00;100096.34;;;7.59
28803;BMP280;15949;55.656;37.422;2022-10-17T18:21:07;100088.41;;;7.55
28803;BMP280;15949;55.656;37.422;2022-10-17T18:26:13;100098.28;;;7.51
28803;BMP280;15949;55.656;37.422;2022-10-17T18:31:20;100093.75;;;7.45
28803;BMP280;15949;55.656;37.422;2022-10-17T18:36:30;100086.53;;;7.52
28803;BMP280;15949;55.656;37.422;2022-10-17T18:41:36;100099.38;;;7.54
28803;BMP280;15949;55.656;37.422;2022-10-17T18:46:42;100105.81;;;7.56
28803;BMP280;15949;55.656;37.422;2022-10-17T18:51:49;100111.81;;;7.71
28803;BMP280;15949;55.656;37.422;2022-10-17T18:56:55;100117.91;;;7.68
28803;BMP280;15949;55.656;37.422;2022-10-17T19:02:00;100112.59;;;7.61
28803;BMP280;15949;55.656;37.422;2022-10-17T19:07:06;100108.09;;;7.58
28803;BMP280;15949;55.656;37.422;2022-10-17T19:12:11;100122.19;;;7.41
28803;BMP280;15949;55.656;37.422;2022-10-17T19:17:17;100121.81;;;7.42
28803;BMP280;15949;55.656;37.422;2022-10-17T19:22:23;100108.94;;;7.41
28803;BMP280;15949;55.656;37.422;2022-10-17T19:27:29;100120.66;;;7.40
28803;BMP280;15949;55.656;37.422;2022-10-17T19:32:35;100118.44;;;7.34
28803;BMP280;15949;55.656;37.422;2022-10-17T19:37:40;100122.97;;;7.34
28803;BMP280;15949;55.656;37.422;2022-10-17T19:42:46;100118.41;;;7.31
28803;BMP280;15949;55.656;37.422;2022-10-17T19:47:52;100121.84;;;7.24
28803;BMP280;15949;55.656;37.422;2022-10-17T19:52:58;100120.31;;;7.30
28803;BMP280;15949;55.656;37.422;2022-10-17T19:58:03;100109.75;;;7.23
28803;BMP280;15949;55.656;37.422;2022-10-17T20:03:09;100121.84;;;7.24
28803;BMP280;15949;55.656;37.422;2022-10-17T20:08:15;100115.44;;;7.25
28803;BMP280;15949;55.656;37.422;2022-10-17T20:13:21;100126.41;;;7.24
28803;BMP280;15949;55.656;37.422;2022-10-17T20:18:27;100124.53;;;7.17
28803;BMP280;15949;55.656;37.422;2022-10-17T20:23:33;100130.19;;;7.19
28803;BMP280;15949;55.656;37.422;2022-10-17T20:28:40;100127.13;;;7.28
28803;BMP280;15949;55.656;37.422;2022-10-17T20:33:46;100131.31;;;7.32
28803;BMP280;15949;55.656;37.422;2022-10-17T20:38:55;100136.94;;;7.42
28803;BMP280;15949;55.656;37.422;2022-10-17T20:44:02;100149.75;;;7.54
28803;BMP280;15949;55.656;37.422;2022-10-17T20:49:12;100152.03;;;7.59
28803;BMP280;15949;55.656;37.422;2022-10-17T20:54:18;100136.84;;;7.63
28803;BMP280;15949;55.656;37.422;2022-10-17T20:59:23;100147.91;;;7.51
28803;BMP280;15949;55.656;37.422;2022-10-17T21:04:30;100137.69;;;7.49
28803;BMP280;15949;55.656;37.422;2022-10-17T21:09:36;100138.50;;;7.35
28803;BMP280;15949;55.656;37.422;2022-10-17T21:14:42;100146.84;;;7.23
28803;BMP280;15949;55.656;37.422;2022-10-17T21:19:47;100139.28;;;7.22
28803;BMP280;15949;55.656;37.422;2022-10-17T21:24:53;100129.41;;;7.29
28803;BMP280;15949;55.656;37.422;2022-10-17T21:29:58;100124.88;;;7.26
28803;BMP280;15949;55.656;37.422;2022-10-17T21:35:04;100123.41;;;7.18
28803;BMP280;15949;55.656;37.422;2022-10-17T21:40:11;100118.81;;;7.22
28803;BMP280;15949;55.656;37.422;2022-10-17T21:45:16;100114.28;;;7.26
28803;BMP280;15949;55.656;37.422;2022-10-17T21:50:22;100112.41;;;7.23
28803;BMP280;15949;55.656;37.422;2022-10-17T21:55:27;100107.47;;;7.25
28803;BMP280;15949;55.656;37.422;2022-10-17T22:00:33;100109.72;;;7.30
28803;BMP280;15949;55.656;37.422;2022-10-17T22:05:39;100096.88;;;7.25
28803;BMP280;15949;55.656;37.422;2022-10-17T22:10:44;100093.09;;;7.19
28803;BMP280;15949;55.656;37.422;2022-10-17T22:15:50;100091.97;;;7.13
28803;BMP280;15949;55.656;37.422;2022-10-17T22:21:17;100095.41;;;7.03
28803;BMP280;15949;55.656;37.422;2022-10-17T22:26:23;100084.09;;;7.09
28803;BMP280;15949;55.656;37.422;2022-10-17T22:31:29;100094.63;;;7.20
28803;BMP280;15949;55.656;37.422;2022-10-17T22:36:35;100087.84;;;7.12
28803;BMP280;15949;55.656;37.422;2022-10-17T22:41:40;100088.59;;;7.12
28803;BMP280;15949;55.656;37.422;2022-10-17T22:46:46;100084.78;;;7.13
28803;BMP280;15949;55.656;37.422;2022-10-17T22:51:51;100073.44;;;7.20
28803;BMP280;15949;55.656;37.422;2022-10-17T22:56:57;100067.69;;;7.32
28803;BMP280;15949;55.656;37.422;2022-10-17T23:02:03;100075.66;;;7.29
28803;BMP280;15949;55.656;37.422;2022-10-17T23:07:08;100062.00;;;7.30
28803;BMP280;15949;55.656;37.422;2022-10-17T23:12:18;100065.47;;;7.24
28803;BMP280;15949;55.656;37.422;2022-10-17T23:17:23;100063.56;;;7.24
28803;BMP280;15949;55.656;37.422;2022-10-17T23:22:29;100079.06;;;7.22
28803;BMP280;15949;55.656;37.422;2022-10-17T23:27:34;100057.91;;;7.15
28803;BMP280;15949;55.656;37.422;2022-10-17T23:32:40;100071.19;;;7.08
28803;BMP280;15949;55.656;37.422;2022-10-17T23:37:46;100071.97;;;7.01
28803;BMP280;15949;55.656;37.422;2022-10-17T23:42:51;100079.56;;;6.88
28803;BMP280;15949;55.656;37.422;2022-10-17T23:47:57;100068.22;;;6.84
28803;BMP280;15949;55.656;37.422;2022-10-17T23:53:02;100073.16;;;6.75
28803;BMP280;15949;55.656;37.422;2022-10-17T23:58:08;100061.06;;;6.74
